sensor_id;sensor_type;location;lat;lon;timestamp;temperature;humidity
18906;DHT22;9585;51.018;4.282;2023-05-15T00:00:38;8.80;99.90
18906;DHT22;9585;51.018;4.282;2023-05-15T00:03:06;8.80;99.90
18906;DHT22;9585;51.018;4.282;2023-05-15T00:05:34;8.70;99.90
18906;DHT22;9585;51.018;4.282;2023-05-15T00:08:01;8.60;99.90
18906;DHT22;9585;51.018;4.282;2023-05-15T00:10:28;8.60;99.90
18906;DHT22;9585;51.018;4.282;2023-05-15T00:12:57;8.50;99.90
18906;DHT22;9585;51.018;4.282;2023-05-15T00:15:25;8.50;99.90
18906;DHT22;9585;51.018;4.282;2023-05-15T00:17:52;8.50;99.90
18906;DHT22;9585;51.018;4.282;2023-05-15T00:20:22;8.40;99.90
18906;DHT22;9585;51.018;4.282;2023-05-15T00:22:49;8.40;99.90
18906;DHT22;9585;51.018;4.282;2023-05-15T00:25:17;8.40;99.90
18906;DHT22;9585;51.018;4.282;2023-05-15T00:27:45;8.40;99.90
18906;DHT22;9585;51.018;4.282;2023-05-15T00:30:15;8.50;99.90
18906;DHT22;9585;51.018;4.282;2023-05-15T00:32:42;8.40;99.90
18906;DHT22;9585;51.018;4.282;2023-05-15T00:35:09;8.40;99.90
18906;DHT22;9585;51.018;4.282;2023-05-15T00:37:37;8.50;99.90
18906;DHT22;9585;51.018;4.282;2023-05-15T00:40:06;8.50;99.90
18906;DHT22;9585;51.018;4.282;2023-05-15T00:42:34;8.40;99.90
18906;DHT22;9585;51.018;4.282;2023-05-15T00:45:02;8.40;99.90
18906;DHT22;9585;51.018;4.282;2023-05-15T00:47:33;8.50;99.90
18906;DHT22;9585;51.018;4.282;2023-05-15T00:50:02;8.50;99.90
18906;DHT22;9585;51.018;4.282;2023-05-15T00:52:30;8.50;99.90
18906;DHT22;9585;51.018;4.282;2023-05-15T00:54:58;8.60;99.90
18906;DHT22;9585;51.018;4.282;2023-05-15T00:57:26;8.60;99.90
18906;DHT22;9585;51.018;4.282;2023-05-15T00:59:56;8.60;99.90
18906;DHT22;9585;51.018;4.282;2023-05-15T01:02:23;8.60;99.90
18906;DHT22;9585;51.018;4.282;2023-05-15T01:04:53;8.60;99.90
18906;DHT22;9585;51.018;4.282;2023-05-15T01:07:20;8.60;99.90
18906;DHT22;9585;51.018;4.282;2023-05-15T01:09:48;8.60;99.90
18906;DHT22;9585;51.018;4.282;2023-05-15T01:12:17;8.60;99.90
18906;DHT22;9585;51.018;4.282;2023-05-15T01:14:45;8.60;99.90
18906;DHT22;9585;51.018;4.282;2023-05-15T01:17:13;8.60;99.90
18906;DHT22;9585;51.018;4.282;2023-05-15T01:19:41;8.60;99.90
18906;DHT22;9585;51.018;4.282;2023-05-15T01:22:20;8.60;99.90
18906;DHT22;9585;51.018;4.282;2023-05-15T01:27:49;8.50;99.90
18906;DHT22;9585;51.018;4.282;2023-05-15T01:30:21;8.40;99.90
18906;DHT22;9585;51.018;4.282;2023-05-15T01:32:53;8.40;99.90
18906;DHT22;9585;51.018;4.282;2023-05-15T01:35:26;8.40;99.90
18906;DHT22;9585;51.018;4.282;2023-05-15T01:40:43;8.40;99.90
18906;DHT22;9585;51.018;4.282;2023-05-15T01:43:17;8.40;99.90
18906;DHT22;9585;51.018;4.282;2023-05-15T01:45:44;8.40;99.90
18906;DHT22;9585;51.018;4.282;2023-05-15T01:48:13;8.30;99.90
18906;DHT22;9585;51.018;4.282;2023-05-15T01:50:42;8.30;99.90
18906;DHT22;9585;51.018;4.282;2023-05-15T01:53:11;8.30;99.90
18906;DHT22;9585;51.018;4.282;2023-05-15T01:55:40;8.30;99.90
18906;DHT22;9585;51.018;4.282;2023-05-15T01:58:09;8.30;99.90
18906;DHT22;9585;51.018;4.282;2023-05-15T02:00:39;8.30;99.90
18906;DHT22;9585;51.018;4.282;2023-05-15T02:03:08;8.20;99.90
18906;DHT22;9585;51.018;4.282;2023-05-15T02:05:36;8.20;99.90
18906;DHT22;9585;51.018;4.282;2023-05-15T02:08:04;8.20;99.90
18906;DHT22;9585;51.018;4.282;2023-05-15T02:10:33;8.10;99.90
18906;DHT22;9585;51.018;4.282;2023-05-15T02:13:01;8.10;99.90
18906;DHT22;9585;51.018;4.282;2023-05-15T02:15:28;8.10;99.90
18906;DHT22;9585;51.018;4.282;2023-05-15T02:17:58;8.10;99.90
18906;DHT22;9585;51.018;4.282;2023-05-15T02:20:25;8.00;99.90
18906;DHT22;9585;51.018;4.282;2023-05-15T02:22:53;8.00;99.90
18906;DHT22;9585;51.018;4.282;2023-05-15T02:25:31;8.00;99.90
18906;DHT22;9585;51.018;4.282;2023-05-15T02:28:00;8.00;99.90
18906;DHT22;9585;51.018;4.282;2023-05-15T02:30:37;8.00;99.90
18906;DHT22;9585;51.018;4.282;2023-05-15T02:33:17;8.00;99.90
18906;DHT22;9585;51.018;4.282;2023-05-15T02:35:52;8.00;99.90
18906;DHT22;9585;51.018;4.282;2023-05-15T02:38:27;8.00;99.90
18906;DHT22;9585;51.018;4.282;2023-05-15T02:40:56;8.00;99.90
18906;DHT22;9585;51.018;4.282;2023-05-15T02:43:25;8.00;99.90
18906;DHT22;9585;51.018;4.282;2023-05-15T02:45:53;8.00;99.90
18906;DHT22;9585;51.018;4.282;2023-05-15T02:48:24;8.10;99.90
18906;DHT22;9585;51.018;4.282;2023-05-15T02:50:52;8.10;99.90
18906;DHT22;9585;51.018;4.282;2023-05-15T02:53:19;8.10;99.90
18906;DHT22;9585;51.018;4.282;2023-05-15T02:55:47;8.10;99.90
18906;DHT22;9585;51.018;4.282;2023-05-15T02:58:14;8.20;99.90
18906;DHT22;9585;51.018;4.282;2023-05-15T03:00:41;8.20;99.90
18906;DHT22;9585;51.018;4.282;2023-05-15T03:03:09;8.30;99.90
18906;DHT22;9585;51.018;4.282;2023-05-15T03:05:38;8.30;99.90
18906;DHT22;9585;51.018;4.282;2023-05-15T03:08:05;8.40;99.90
18906;DHT22;9585;51.018;4.282;2023-05-15T03:10:33;8.40;99.90
18906;DHT22;9585;51.018;4.282;2023-05-15T03:13:01;8.40;99.90
18906;DHT22;9585;51.018;4.282;2023-05-15T03:15:29;8.40;99.90
18906;DHT22;9585;51.018;4.282;2023-05-15T03:17:56;8.40;99.90
18906;DHT22;9585;51.018;4.282;2023-05-15T03:20:24;8.40;99.90
18906;DHT22;9585;51.018;4.282;2023-05-15T03:22:53;8.50;99.90
18906;DHT22;9585;51.018;4.282;2023-05-15T03:25:21;8.50;99.90
18906;DHT22;9585;51.018;4.282;2023-05-15T03:27:49;8.50;99.90
18906;DHT22;9585;51.018;4.282;2023-05-15T03:30:16;8.50;99.90
18906;DHT22;9585;51.018;4.282;2023-05-15T03:32:44;8.50;99.90
18906;DHT22;9585;51.018;4.282;2023-05-15T03:35:11;8.60;99.90
18906;DHT22;9585;51.018;4.282;2023-05-15T03:37:38;8.60;99.90
18906;DHT22;9585;51.018;4.282;2023-05-15T03:40:09;8.60;99.90
18906;DHT22;9585;51.018;4.282;2023-05-15T03:42:37;8.70;99.90
18906;DHT22;9585;51.018;4.282;2023-05-15T03:45:05;8.70;99.90
18906;DHT22;9585;51.018;4.282;2023-05-15T03:47:34;8.70;99.90
18906;DHT22;9585;51.018;4.282;2023-05-15T03:50:01;8.80;99.90
18906;DHT22;9585;51.018;4.282;2023-05-15T03:52:29;8.80;99.90
18906;DHT22;9585;51.018;4.282;2023-05-15T03:54:56;8.80;99.90
18906;DHT22;9585;51.018;4.282;2023-05-15T03:57:25;8.90;99.90
18906;DHT22;9585;51.018;4.282;2023-05-15T03:59:53;8.80;99.90
18906;DHT22;9585;51.018;4.282;2023-05-15T04:02:20;8.90;99.90
18906;DHT22;9585;51.018;4.282;2023-05-15T04:04:47;8.90;99.90
18906;DHT22;9585;51.018;4.282;2023-05-15T04:07:16;8.90;99.90
18906;DHT22;9585;51.018;4.282;2023-05-15T04:09:44;8.90;99.90
18906;DHT22;9585;51.018;4.282;2023-05-15T04:12:11;9.00;99.90
18906;DHT22;9585;51.018;4.282;2023-05-15T04:14:41;8.90;99.90
18906;DHT22;9585;51.018;4.282;2023-05-15T04:17:08;8.90;99.90
18906;DHT22;9585;51.018;4.282;2023-05-15T04:19:36;9.00;99.90
18906;DHT22;9585;51.018;4.282;2023-05-15T04:22:03;9.00;99.90
18906;DHT22;9585;51.018;4.282;2023-05-15T04:24:31;9.10;99.90
18906;DHT22;9585;51.018;4.282;2023-05-15T04:26:59;9.00;99.90
18906;DHT22;9585;51.018;4.282;2023-05-15T04:29:26;9.00;99.90
18906;DHT22;9585;51.018;4.282;2023-05-15T04:31:55;8.90;99.90
18906;DHT22;9585;51.018;4.282;2023-05-15T04:34:22;9.00;99.90
18906;DHT22;9585;51.018;4.282;2023-05-15T04:36:50;8.90;99.90
18906;DHT22;9585;51.018;4.282;2023-05-15T04:39:17;8.80;99.90
18906;DHT22;9585;51.018;4.282;2023-05-15T04:41:44;8.80;99.90
18906;DHT22;9585;51.018;4.282;2023-05-15T04:44:12;8.80;99.90
18906;DHT22;9585;51.018;4.282;2023-05-15T04:46:39;8.80;99.90
18906;DHT22;9585;51.018;4.282;2023-05-15T04:49:08;8.80;99.90
18906;DHT22;9585;51.018;4.282;2023-05-15T04:51:39;8.80;99.90
18906;DHT22;9585;51.018;4.282;2023-05-15T04:54:07;8.90;99.90
18906;DHT22;9585;51.018;4.282;2023-05-15T04:56:35;8.90;99.90
18906;DHT22;9585;51.018;4.282;2023-05-15T04:59:02;8.90;99.90
18906;DHT22;9585;51.018;4.282;2023-05-15T05:01:29;8.90;99.90
18906;DHT22;9585;51.018;4.282;2023-05-15T05:03:57;8.90;99.90
18906;DHT22;9585;51.018;4.282;2023-05-15T05:06:25;8.90;99.90
18906;DHT22;9585;51.018;4.282;2023-05-15T05:08:53;8.90;99.90
18906;DHT22;9585;51.018;4.282;2023-05-15T05:11:20;8.90;99.90
18906;DHT22;9585;51.018;4.282;2023-05-15T05:13:48;9.00;99.90
18906;DHT22;9585;51.018;4.282;2023-05-15T05:16:15;9.00;99.90
18906;DHT22;9585;51.018;4.282;2023-05-15T05:18:46;9.00;99.90
18906;DHT22;9585;51.018;4.282;2023-05-15T05:21:13;9.00;99.90
18906;DHT22;9585;51.018;4.282;2023-05-15T05:23:42;8.90;99.90
18906;DHT22;9585;51.018;4.282;2023-05-15T05:26:09;8.90;99.90
18906;DHT22;9585;51.018;4.282;2023-05-15T05:28:37;8.80;99.90
18906;DHT22;9585;51.018;4.282;2023-05-15T05:31:04;8.90;99.90
18906;DHT22;9585;51.018;4.282;2023-05-15T05:33:33;8.80;99.90
18906;DHT22;9585;51.018;4.282;2023-05-15T05:36:00;8.90;99.90
18906;DHT22;9585;51.018;4.282;2023-05-15T05:38:28;8.90;99.90
18906;DHT22;9585;51.018;4.282;2023-05-15T05:40:57;8.90;99.90
18906;DHT22;9585;51.018;4.282;2023-05-15T05:43:26;9.00;99.90
18906;DHT22;9585;51.018;4.282;2023-05-15T05:45:53;9.00;99.90
18906;DHT22;9585;51.018;4.282;2023-05-15T05:48:21;9.00;99.90
18906;DHT22;9585;51.018;4.282;2023-05-15T05:50:48;9.00;99.90
18906;DHT22;9585;51.018;4.282;2023-05-15T05:53:20;9.10;99.90
18906;DHT22;9585;51.018;4.282;2023-05-15T05:55:48;9.20;99.90
18906;DHT22;9585;51.018;4.282;2023-05-15T05:58:17;9.30;99.90
18906;DHT22;9585;51.018;4.282;2023-05-15T06:00:44;9.40;99.90
18906;DHT22;9585;51.018;4.282;2023-05-15T06:03:12;9.40;99.90
18906;DHT22;9585;51.018;4.282;2023-05-15T06:05:39;9.50;99.90
18906;DHT22;9585;51.018;4.282;2023-05-15T06:08:07;9.60;99.90
18906;DHT22;9585;51.018;4.282;2023-05-15T06:10:34;9.70;99.90
18906;DHT22;9585;51.018;4.282;2023-05-15T06:13:02;9.70;99.90
18906;DHT22;9585;51.018;4.282;2023-05-15T06:15:31;9.80;99.90
18906;DHT22;9585;51.018;4.282;2023-05-15T06:17:58;10.00;99.90
18906;DHT22;9585;51.018;4.282;2023-05-15T06:20:26;10.00;99.90
18906;DHT22;9585;51.018;4.282;2023-05-15T06:22:53;10.10;99.90
18906;DHT22;9585;51.018;4.282;2023-05-15T06:25:21;10.20;99.90
18906;DHT22;9585;51.018;4.282;2023-05-15T06:27:48;10.20;99.90
18906;DHT22;9585;51.018;4.282;2023-05-15T06:30:18;10.10;99.90
18906;DHT22;9585;51.018;4.282;2023-05-15T06:32:52;10.20;99.90
18906;DHT22;9585;51.018;4.282;2023-05-15T06:35:20;10.30;99.90
18906;DHT22;9585;51.018;4.282;2023-05-15T06:37:49;10.30;99.90
18906;DHT22;9585;51.018;4.282;2023-05-15T06:40:22;10.20;99.90
18906;DHT22;9585;51.018;4.282;2023-05-15T06:42:50;10.30;99.90
18906;DHT22;9585;51.018;4.282;2023-05-15T06:45:19;10.30;99.90
18906;DHT22;9585;51.018;4.282;2023-05-15T06:47:56;10.40;99.90
18906;DHT22;9585;51.018;4.282;2023-05-15T06:50:23;10.30;99.90
18906;DHT22;9585;51.018;4.282;2023-05-15T06:52:51;10.20;99.90
18906;DHT22;9585;51.018;4.282;2023-05-15T06:55:19;10.20;99.90
18906;DHT22;9585;51.018;4.282;2023-05-15T06:57:54;10.30;99.90
18906;DHT22;9585;51.018;4.282;2023-05-15T07:00:21;10.40;99.90
18906;DHT22;9585;51.018;4.282;2023-05-15T07:02:49;10.30;99.90
18906;DHT22;9585;51.018;4.282;2023-05-15T07:05:18;10.20;99.90
18906;DHT22;9585;51.018;4.282;2023-05-15T07:07:47;10.30;99.90
18906;DHT22;9585;51.018;4.282;2023-05-15T07:10:18;10.30;99.90
18906;DHT22;9585;51.018;4.282;2023-05-15T07:12:46;10.40;99.90
18906;DHT22;9585;51.018;4.282;2023-05-15T07:15:14;10.50;99.90
18906;DHT22;9585;51.018;4.282;2023-05-15T07:17:55;10.60;99.90
18906;DHT22;9585;51.018;4.282;2023-05-15T07:20:23;10.60;99.90
18906;DHT22;9585;51.018;4.282;2023-05-15T07:22:51;10.60;99.90
18906;DHT22;9585;51.018;4.282;2023-05-15T07:25:21;10.80;99.90
18906;DHT22;9585;51.018;4.282;2023-05-15T07:27:48;10.90;99.90
18906;DHT22;9585;51.018;4.282;2023-05-15T07:30:16;11.00;99.90
18906;DHT22;9585;51.018;4.282;2023-05-15T07:32:43;11.30;99.90
18906;DHT22;9585;51.018;4.282;2023-05-15T07:35:11;11.20;99.90
18906;DHT22;9585;51.018;4.282;2023-05-15T07:37:40;11.30;99.90
18906;DHT22;9585;51.018;4.282;2023-05-15T07:40:07;11.40;99.90
18906;DHT22;9585;51.018;4.282;2023-05-15T07:42:41;11.40;99.90
18906;DHT22;9585;51.018;4.282;2023-05-15T07:45:09;10.90;99.90
18906;DHT22;9585;51.018;4.282;2023-05-15T07:47:36;10.80;99.90
18906;DHT22;9585;51.018;4.282;2023-05-15T07:50:04;11.10;99.90
18906;DHT22;9585;51.018;4.282;2023-05-15T07:52:33;11.30;99.90
18906;DHT22;9585;51.018;4.282;2023-05-15T07:55:07;11.60;99.90
18906;DHT22;9585;51.018;4.282;2023-05-15T07:57:35;12.00;99.90
18906;DHT22;9585;51.018;4.282;2023-05-15T08:00:02;12.10;99.90
18906;DHT22;9585;51.018;4.282;2023-05-15T08:02:35;12.30;99.90
18906;DHT22;9585;51.018;4.282;2023-05-15T08:05:03;12.40;99.90
18906;DHT22;9585;51.018;4.282;2023-05-15T08:07:31;12.50;99.90
18906;DHT22;9585;51.018;4.282;2023-05-15T08:09:59;12.30;99.90
18906;DHT22;9585;51.018;4.282;2023-05-15T08:12:32;12.20;99.90
18906;DHT22;9585;51.018;4.282;2023-05-15T08:15:01;12.30;99.90
18906;DHT22;9585;51.018;4.282;2023-05-15T08:17:31;12.40;99.90
18906;DHT22;9585;51.018;4.282;2023-05-15T08:19:58;12.40;99.90
18906;DHT22;9585;51.018;4.282;2023-05-15T08:22:48;12.50;99.90
18906;DHT22;9585;51.018;4.282;2023-05-15T08:25:17;12.60;99.90
18906;DHT22;9585;51.018;4.282;2023-05-15T08:27:54;12.50;99.90
18906;DHT22;9585;51.018;4.282;2023-05-15T08:30:24;12.60;99.90
18906;DHT22;9585;51.018;4.282;2023-05-15T08:32:52;12.70;99.90
18906;DHT22;9585;51.018;4.282;2023-05-15T08:35:22;12.70;99.90
18906;DHT22;9585;51.018;4.282;2023-05-15T08:37:52;12.90;99.90
18906;DHT22;9585;51.018;4.282;2023-05-15T08:40:24;13.00;99.90
18906;DHT22;9585;51.018;4.282;2023-05-15T08:43:02;13.10;99.90
18906;DHT22;9585;51.018;4.282;2023-05-15T08:45:30;13.30;99.90
18906;DHT22;9585;51.018;4.282;2023-05-15T08:47:58;13.20;99.90
18906;DHT22;9585;51.018;4.282;2023-05-15T08:50:27;13.00;99.90
18906;DHT22;9585;51.018;4.282;2023-05-15T08:52:55;13.10;99.90
18906;DHT22;9585;51.018;4.282;2023-05-15T08:55:25;13.20;99.90
18906;DHT22;9585;51.018;4.282;2023-05-15T08:57:53;13.20;99.90
18906;DHT22;9585;51.018;4.282;2023-05-15T09:00:35;13.50;99.90
18906;DHT22;9585;51.018;4.282;2023-05-15T09:03:11;13.60;99.90
18906;DHT22;9585;51.018;4.282;2023-05-15T09:05:54;13.60;99.90
18906;DHT22;9585;51.018;4.282;2023-05-15T09:08:24;13.50;99.90
18906;DHT22;9585;51.018;4.282;2023-05-15T09:11:07;13.70;99.90
18906;DHT22;9585;51.018;4.282;2023-05-15T09:13:34;13.70;99.90
18906;DHT22;9585;51.018;4.282;2023-05-15T09:16:07;13.90;99.90
18906;DHT22;9585;51.018;4.282;2023-05-15T09:18:38;13.90;99.90
18906;DHT22;9585;51.018;4.282;2023-05-15T09:21:21;14.00;99.90
18906;DHT22;9585;51.018;4.282;2023-05-15T09:23:53;14.10;99.90
18906;DHT22;9585;51.018;4.282;2023-05-15T09:26:22;14.00;99.90
18906;DHT22;9585;51.018;4.282;2023-05-15T09:29:01;13.80;99.90
18906;DHT22;9585;51.018;4.282;2023-05-15T09:31:29;13.70;99.90
18906;DHT22;9585;51.018;4.282;2023-05-15T09:34:03;13.60;99.90
18906;DHT22;9585;51.018;4.282;2023-05-15T09:36:44;13.50;99.90
18906;DHT22;9585;51.018;4.282;2023-05-15T09:39:12;13.70;99.90
18906;DHT22;9585;51.018;4.282;2023-05-15T09:41:41;13.80;99.90
18906;DHT22;9585;51.018;4.282;2023-05-15T09:44:27;13.70;99.90
18906;DHT22;9585;51.018;4.282;2023-05-15T09:46:58;13.70;99.90
18906;DHT22;9585;51.018;4.282;2023-05-15T09:49:30;14.00;99.90
18906;DHT22;9585;51.018;4.282;2023-05-15T09:51:58;14.00;99.90
18906;DHT22;9585;51.018;4.282;2023-05-15T09:54:29;14.00;99.90
18906;DHT22;9585;51.018;4.282;2023-05-15T09:57:06;14.20;99.90
18906;DHT22;9585;51.018;4.282;2023-05-15T09:59:34;14.20;99.90
18906;DHT22;9585;51.018;4.282;2023-05-15T10:02:03;13.90;99.90
18906;DHT22;9585;51.018;4.282;2023-05-15T10:04:33;13.90;99.90
18906;DHT22;9585;51.018;4.282;2023-05-15T10:07:01;13.90;99.90
18906;DHT22;9585;51.018;4.282;2023-05-15T10:09:29;13.90;99.90
18906;DHT22;9585;51.018;4.282;2023-05-15T10:11:57;13.90;99.90
18906;DHT22;9585;51.018;4.282;2023-05-15T10:14:25;14.00;99.90
18906;DHT22;9585;51.018;4.282;2023-05-15T10:16:54;14.10;99.90
18906;DHT22;9585;51.018;4.282;2023-05-15T10:19:24;14.20;99.90
18906;DHT22;9585;51.018;4.282;2023-05-15T10:21:55;14.30;99.90
18906;DHT22;9585;51.018;4.282;2023-05-15T10:24:25;14.30;99.90
18906;DHT22;9585;51.018;4.282;2023-05-15T10:26:54;14.20;99.90
18906;DHT22;9585;51.018;4.282;2023-05-15T10:29:25;14.20;99.90
18906;DHT22;9585;51.018;4.282;2023-05-15T10:32:01;14.20;99.90
18906;DHT22;9585;51.018;4.282;2023-05-15T10:34:45;14.30;99.90
18906;DHT22;9585;51.018;4.282;2023-05-15T10:37:13;14.20;99.90
18906;DHT22;9585;51.018;4.282;2023-05-15T10:39:42;13.90;99.90
18906;DHT22;9585;51.018;4.282;2023-05-15T10:42:12;13.70;99.90
18906;DHT22;9585;51.018;4.282;2023-05-15T10:44:42;13.60;99.90
18906;DHT22;9585;51.018;4.282;2023-05-15T10:47:10;13.60;99.90
18906;DHT22;9585;51.018;4.282;2023-05-15T10:49:46;13.50;99.90
18906;DHT22;9585;51.018;4.282;2023-05-15T10:52:17;13.40;99.90
18906;DHT22;9585;51.018;4.282;2023-05-15T10:54:44;13.40;99.90
18906;DHT22;9585;51.018;4.282;2023-05-15T10:57:13;13.50;99.90
18906;DHT22;9585;51.018;4.282;2023-05-15T10:59:41;13.60;99.90
18906;DHT22;9585;51.018;4.282;2023-05-15T11:02:19;13.60;99.90
18906;DHT22;9585;51.018;4.282;2023-05-15T11:04:53;13.60;99.90
18906;DHT22;9585;51.018;4.282;2023-05-15T11:07:22;13.70;99.90
18906;DHT22;9585;51.018;4.282;2023-05-15T11:09:50;13.80;99.90
18906;DHT22;9585;51.018;4.282;2023-05-15T11:12:21;13.90;99.90
18906;DHT22;9585;51.018;4.282;2023-05-15T11:15:18;13.90;99.90
18906;DHT22;9585;51.018;4.282;2023-05-15T11:18:03;13.70;99.90
18906;DHT22;9585;51.018;4.282;2023-05-15T11:20:37;13.60;99.90
18906;DHT22;9585;51.018;4.282;2023-05-15T11:23:05;13.50;99.90
18906;DHT22;9585;51.018;4.282;2023-05-15T11:25:41;13.50;99.90
18906;DHT22;9585;51.018;4.282;2023-05-15T11:28:23;13.40;99.90
18906;DHT22;9585;51.018;4.282;2023-05-15T11:30:51;13.40;99.90
18906;DHT22;9585;51.018;4.282;2023-05-15T11:33:19;13.40;99.90
18906;DHT22;9585;51.018;4.282;2023-05-15T11:36:00;13.20;99.90
18906;DHT22;9585;51.018;4.282;2023-05-15T11:38:37;13.20;99.90
18906;DHT22;9585;51.018;4.282;2023-05-15T11:41:17;13.00;99.90
18906;DHT22;9585;51.018;4.282;2023-05-15T11:43:44;13.00;99.90
18906;DHT22;9585;51.018;4.282;2023-05-15T11:46:12;13.00;99.90
18906;DHT22;9585;51.018;4.282;2023-05-15T11:48:46;12.90;99.90
18906;DHT22;9585;51.018;4.282;2023-05-15T11:51:26;12.80;99.90
18906;DHT22;9585;51.018;4.282;2023-05-15T11:53:55;12.80;99.90
18906;DHT22;9585;51.018;4.282;2023-05-15T11:56:27;12.90;99.90
18906;DHT22;9585;51.018;4.282;2023-05-15T11:59:04;12.90;99.90
18906;DHT22;9585;51.018;4.282;2023-05-15T12:01:38;12.80;99.90
18906;DHT22;9585;51.018;4.282;2023-05-15T12:04:11;12.90;99.90
18906;DHT22;9585;51.018;4.282;2023-05-15T12:06:44;12.80;99.90
18906;DHT22;9585;51.018;4.282;2023-05-15T12:09:16;12.60;99.90
18906;DHT22;9585;51.018;4.282;2023-05-15T12:11:51;12.60;99.90
18906;DHT22;9585;51.018;4.282;2023-05-15T12:14:27;12.50;99.90
18906;DHT22;9585;51.018;4.282;2023-05-15T12:16:58;12.40;99.90
18906;DHT22;9585;51.018;4.282;2023-05-15T12:19:29;12.40;99.90
18906;DHT22;9585;51.018;4.282;2023-05-15T12:22:03;12.60;99.90
18906;DHT22;9585;51.018;4.282;2023-05-15T12:24:31;12.60;99.90
18906;DHT22;9585;51.018;4.282;2023-05-15T12:27:10;12.60;99.90
18906;DHT22;9585;51.018;4.282;2023-05-15T12:29:39;12.60;99.90
18906;DHT22;9585;51.018;4.282;2023-05-15T12:32:11;12.50;99.90
18906;DHT22;9585;51.018;4.282;2023-05-15T12:34:38;12.50;99.90
18906;DHT22;9585;51.018;4.282;2023-05-15T12:37:11;12.40;99.90
18906;DHT22;9585;51.018;4.282;2023-05-15T12:39:53;12.40;99.90
18906;DHT22;9585;51.018;4.282;2023-05-15T12:42:26;12.50;99.90
18906;DHT22;9585;51.018;4.282;2023-05-15T12:44:55;12.50;99.90
18906;DHT22;9585;51.018;4.282;2023-05-15T12:47:23;12.60;99.90
18906;DHT22;9585;51.018;4.282;2023-05-15T12:49:55;12.70;99.90
18906;DHT22;9585;51.018;4.282;2023-05-15T12:52:27;12.70;99.90
18906;DHT22;9585;51.018;4.282;2023-05-15T12:54:58;12.60;99.90
18906;DHT22;9585;51.018;4.282;2023-05-15T12:57:26;12.50;99.90
18906;DHT22;9585;51.018;4.282;2023-05-15T12:59:55;12.50;99.90
18906;DHT22;9585;51.018;4.282;2023-05-15T13:02:26;12.50;99.90
18906;DHT22;9585;51.018;4.282;2023-05-15T13:04:54;12.50;99.90
18906;DHT22;9585;51.018;4.282;2023-05-15T13:07:22;12.50;99.90
18906;DHT22;9585;51.018;4.282;2023-05-15T13:10:04;12.60;99.90
18906;DHT22;9585;51.018;4.282;2023-05-15T13:12:35;12.60;99.90
18906;DHT22;9585;51.018;4.282;2023-05-15T13:15:06;12.60;99.90
18906;DHT22;9585;51.018;4.282;2023-05-15T13:17:36;12.70;99.90
18906;DHT22;9585;51.018;4.282;2023-05-15T13:20:07;12.90;99.90
18906;DHT22;9585;51.018;4.282;2023-05-15T13:22:34;13.00;99.90
18906;DHT22;9585;51.018;4.282;2023-05-15T13:25:08;13.20;99.90
18906;DHT22;9585;51.018;4.282;2023-05-15T13:27:35;13.30;99.90
18906;DHT22;9585;51.018;4.282;2023-05-15T13:30:03;13.30;99.90
18906;DHT22;9585;51.018;4.282;2023-05-15T13:32:31;13.50;99.90
18906;DHT22;9585;51.018;4.282;2023-05-15T13:34:58;13.50;99.90
18906;DHT22;9585;51.018;4.282;2023-05-15T13:37:26;13.40;99.90
18906;DHT22;9585;51.018;4.282;2023-05-15T13:39:56;13.20;99.90
18906;DHT22;9585;51.018;4.282;2023-05-15T13:42:25;13.00;99.90
18906;DHT22;9585;51.018;4.282;2023-05-15T13:44:54;12.80;99.90
18906;DHT22;9585;51.018;4.282;2023-05-15T13:47:22;12.70;99.90
18906;DHT22;9585;51.018;4.282;2023-05-15T13:49:49;12.60;99.90
18906;DHT22;9585;51.018;4.282;2023-05-15T13:52:17;12.60;99.90
18906;DHT22;9585;51.018;4.282;2023-05-15T13:54:44;12.50;99.90
18906;DHT22;9585;51.018;4.282;2023-05-15T13:57:12;12.50;99.90
18906;DHT22;9585;51.018;4.282;2023-05-15T13:59:40;12.60;99.90
18906;DHT22;9585;51.018;4.282;2023-05-15T14:02:11;12.60;99.90
18906;DHT22;9585;51.018;4.282;2023-05-15T14:04:40;12.60;99.90
18906;DHT22;9585;51.018;4.282;2023-05-15T14:07:08;12.50;99.90
18906;DHT22;9585;51.018;4.282;2023-05-15T14:09:38;12.40;99.90
18906;DHT22;9585;51.018;4.282;2023-05-15T14:12:06;12.30;99.90
18906;DHT22;9585;51.018;4.282;2023-05-15T14:14:34;12.30;99.90
18906;DHT22;9585;51.018;4.282;2023-05-15T14:17:04;12.20;99.90
18906;DHT22;9585;51.018;4.282;2023-05-15T14:19:31;12.10;99.90
18906;DHT22;9585;51.018;4.282;2023-05-15T14:21:59;11.90;99.90
18906;DHT22;9585;51.018;4.282;2023-05-15T14:24:26;11.80;99.90
18906;DHT22;9585;51.018;4.282;2023-05-15T14:26:54;11.70;99.90
18906;DHT22;9585;51.018;4.282;2023-05-15T14:29:23;11.80;99.90
18906;DHT22;9585;51.018;4.282;2023-05-15T14:31:54;11.90;99.90
18906;DHT22;9585;51.018;4.282;2023-05-15T14:34:24;12.00;99.90
18906;DHT22;9585;51.018;4.282;2023-05-15T14:36:52;12.10;99.90
18906;DHT22;9585;51.018;4.282;2023-05-15T14:39:21;12.10;99.90
18906;DHT22;9585;51.018;4.282;2023-05-15T14:41:49;12.20;99.90
18906;DHT22;9585;51.018;4.282;2023-05-15T14:44:16;12.40;99.90
18906;DHT22;9585;51.018;4.282;2023-05-15T14:46:44;12.50;99.90
18906;DHT22;9585;51.018;4.282;2023-05-15T14:49:13;12.40;99.90
18906;DHT22;9585;51.018;4.282;2023-05-15T14:51:45;12.40;99.90
18906;DHT22;9585;51.018;4.282;2023-05-15T14:54:12;12.40;99.90
18906;DHT22;9585;51.018;4.282;2023-05-15T14:56:42;12.40;99.90
18906;DHT22;9585;51.018;4.282;2023-05-15T14:59:09;12.40;99.90
18906;DHT22;9585;51.018;4.282;2023-05-15T15:01:36;12.40;99.90
18906;DHT22;9585;51.018;4.282;2023-05-15T15:04:04;12.20;99.90
18906;DHT22;9585;51.018;4.282;2023-05-15T15:06:31;12.20;99.90
18906;DHT22;9585;51.018;4.282;2023-05-15T15:09:00;12.10;99.90
18906;DHT22;9585;51.018;4.282;2023-05-15T15:11:28;12.10;99.90
18906;DHT22;9585;51.018;4.282;2023-05-15T15:13:55;12.10;99.90
18906;DHT22;9585;51.018;4.282;2023-05-15T15:16:22;12.10;99.90
18906;DHT22;9585;51.018;4.282;2023-05-15T15:18:50;12.10;99.90
18906;DHT22;9585;51.018;4.282;2023-05-15T15:21:17;12.00;99.90
18906;DHT22;9585;51.018;4.282;2023-05-15T15:23:44;12.00;99.90
18906;DHT22;9585;51.018;4.282;2023-05-15T15:26:14;11.90;99.90
18906;DHT22;9585;51.018;4.282;2023-05-15T15:28:41;11.80;99.90
18906;DHT22;9585;51.018;4.282;2023-05-15T15:31:09;11.80;99.90
18906;DHT22;9585;51.018;4.282;2023-05-15T15:33:37;11.80;99.90
18906;DHT22;9585;51.018;4.282;2023-05-15T15:36:04;11.80;99.90
18906;DHT22;9585;51.018;4.282;2023-05-15T15:38:32;11.80;99.90
18906;DHT22;9585;51.018;4.282;2023-05-15T15:41:01;11.70;99.90
18906;DHT22;9585;51.018;4.282;2023-05-15T15:43:31;11.80;99.90
18906;DHT22;9585;51.018;4.282;2023-05-15T15:45:59;11.60;99.90
18906;DHT22;9585;51.018;4.282;2023-05-15T15:48:26;11.60;99.90
18906;DHT22;9585;51.018;4.282;2023-05-15T15:50:54;11.50;99.90
18906;DHT22;9585;51.018;4.282;2023-05-15T15:53:21;11.40;99.90
18906;DHT22;9585;51.018;4.282;2023-05-15T15:55:49;11.40;99.90
18906;DHT22;9585;51.018;4.282;2023-05-15T15:58:16;11.40;99.90
18906;DHT22;9585;51.018;4.282;2023-05-15T16:00:46;11.40;99.90
18906;DHT22;9585;51.018;4.282;2023-05-15T16:03:13;11.30;99.90
18906;DHT22;9585;51.018;4.282;2023-05-15T16:05:43;11.30;99.90
18906;DHT22;9585;51.018;4.282;2023-05-15T16:08:11;11.30;99.90
18906;DHT22;9585;51.018;4.282;2023-05-15T16:10:38;11.30;99.90
18906;DHT22;9585;51.018;4.282;2023-05-15T16:13:06;11.30;99.90